sensor_id;sensor_type;location;lat;lon;timestamp;P1;durP1;ratioP1;P2;durP2;ratioP2
52590;SDS011;38483;42.620;25.394;2023-06-22T00:01:19;12.03;;;10.83;;
52590;SDS011;38483;42.620;25.394;2023-06-22T00:03:48;13.43;;;10.63;;
52590;SDS011;38483;42.620;25.394;2023-06-22T00:06:15;11.70;;;10.50;;
52590;SDS011;38483;42.620;25.394;2023-06-22T00:08:42;12.27;;;10.97;;
52590;SDS011;38483;42.620;25.394;2023-06-22T00:11:09;12.73;;;10.40;;
52590;SDS011;38483;42.620;25.394;2023-06-22T00:13:37;12.07;;;10.73;;
52590;SDS011;38483;42.620;25.394;2023-06-22T00:16:05;11.53;;;10.33;;
52590;SDS011;38483;42.620;25.394;2023-06-22T00:18:32;14.87;;;10.27;;
52590;SDS011;38483;42.620;25.394;2023-06-22T00:20:59;15.73;;;11.17;;
52590;SDS011;38483;42.620;25.394;2023-06-22T00:23:26;13.37;;;10.97;;
52590;SDS011;38483;42.620;25.394;2023-06-22T00:25:53;13.70;;;11.17;;
52590;SDS011;38483;42.620;25.394;2023-06-22T00:28:20;12.57;;;11.23;;
52590;SDS011;38483;42.620;25.394;2023-06-22T00:30:48;12.80;;;11.13;;
52590;SDS011;38483;42.620;25.394;2023-06-22T00:33:17;12.33;;;11.20;;
52590;SDS011;38483;42.620;25.394;2023-06-22T00:35:44;12.83;;;11.53;;
52590;SDS011;38483;42.620;25.394;2023-06-22T00:38:11;12.70;;;11.43;;
52590;SDS011;38483;42.620;25.394;2023-06-22T00:40:41;11.27;;;10.07;;
52590;SDS011;38483;42.620;25.394;2023-06-22T00:43:08;13.07;;;11.80;;
52590;SDS011;38483;42.620;25.394;2023-06-22T00:45:35;12.53;;;11.27;;
52590;SDS011;38483;42.620;25.394;2023-06-22T00:48:02;15.37;;;11.60;;
52590;SDS011;38483;42.620;25.394;2023-06-22T00:50:30;13.20;;;11.00;;
52590;SDS011;38483;42.620;25.394;2023-06-22T00:53:02;12.23;;;10.93;;
52590;SDS011;38483;42.620;25.394;2023-06-22T00:55:37;12.53;;;11.23;;
52590;SDS011;38483;42.620;25.394;2023-06-22T00:58:06;13.77;;;11.27;;
52590;SDS011;38483;42.620;25.394;2023-06-22T01:00:37;13.80;;;11.03;;
52590;SDS011;38483;42.620;25.394;2023-06-22T01:03:06;16.70;;;12.47;;
52590;SDS011;38483;42.620;25.394;2023-06-22T01:05:37;14.53;;;12.53;;
52590;SDS011;38483;42.620;25.394;2023-06-22T01:10:50;14.97;;;12.63;;
52590;SDS011;38483;42.620;25.394;2023-06-22T01:13:30;13.97;;;12.10;;
52590;SDS011;38483;42.620;25.394;2023-06-22T01:16:03;15.00;;;11.50;;
52590;SDS011;38483;42.620;25.394;2023-06-22T01:29:08;16.20;;;12.77;;
52590;SDS011;38483;42.620;25.394;2023-06-22T01:32:34;16.10;;;12.27;;
52590;SDS011;38483;42.620;25.394;2023-06-22T01:35:52;17.83;;;12.97;;
52590;SDS011;38483;42.620;25.394;2023-06-22T01:39:13;15.27;;;12.20;;
52590;SDS011;38483;42.620;25.394;2023-06-22T01:42:33;15.87;;;13.20;;
52590;SDS011;38483;42.620;25.394;2023-06-22T01:45:54;13.73;;;12.33;;
52590;SDS011;38483;42.620;25.394;2023-06-22T01:49:15;12.67;;;11.37;;
52590;SDS011;38483;42.620;25.394;2023-06-22T01:52:36;12.97;;;10.63;;
52590;SDS011;38483;42.620;25.394;2023-06-22T01:55:56;14.93;;;11.50;;
52590;SDS011;38483;42.620;25.394;2023-06-22T01:59:25;11.20;;;10.00;;
52590;SDS011;38483;42.620;25.394;2023-06-22T02:03:01;11.83;;;10.63;;
52590;SDS011;38483;42.620;25.394;2023-06-22T02:06:21;13.20;;;11.80;;
52590;SDS011;38483;42.620;25.394;2023-06-22T02:09:41;15.93;;;12.40;;
52590;SDS011;38483;42.620;25.394;2023-06-22T02:13:03;13.47;;;12.17;;
52590;SDS011;38483;42.620;25.394;2023-06-22T02:16:25;15.03;;;12.47;;
52590;SDS011;38483;42.620;25.394;2023-06-22T02:19:48;13.40;;;12.00;;
52590;SDS011;38483;42.620;25.394;2023-06-22T02:23:09;13.30;;;11.03;;
52590;SDS011;38483;42.620;25.394;2023-06-22T02:26:30;15.30;;;11.90;;
52590;SDS011;38483;42.620;25.394;2023-06-22T02:29:50;13.87;;;12.37;;
52590;SDS011;38483;42.620;25.394;2023-06-22T02:33:11;14.83;;;12.43;;
52590;SDS011;38483;42.620;25.394;2023-06-22T02:36:32;14.47;;;11.97;;
52590;SDS011;38483;42.620;25.394;2023-06-22T02:39:53;16.67;;;11.83;;
52590;SDS011;38483;42.620;25.394;2023-06-22T02:43:13;16.57;;;12.70;;
52590;SDS011;38483;42.620;25.394;2023-06-22T02:46:34;13.57;;;11.97;;
52590;SDS011;38483;42.620;25.394;2023-06-22T02:49:55;15.67;;;12.23;;
52590;SDS011;38483;42.620;25.394;2023-06-22T02:53:16;16.67;;;12.53;;
52590;SDS011;38483;42.620;25.394;2023-06-22T02:56:38;15.03;;;10.90;;
52590;SDS011;38483;42.620;25.394;2023-06-22T02:59:59;13.13;;;11.33;;
52590;SDS011;38483;42.620;25.394;2023-06-22T03:03:20;13.43;;;10.90;;
52590;SDS011;38483;42.620;25.394;2023-06-22T03:06:41;14.37;;;10.90;;
52590;SDS011;38483;42.620;25.394;2023-06-22T03:10:02;12.47;;;10.53;;
52590;SDS011;38483;42.620;25.394;2023-06-22T03:13:23;12.83;;;10.33;;
52590;SDS011;38483;42.620;25.394;2023-06-22T03:16:44;11.87;;;10.67;;
52590;SDS011;38483;42.620;25.394;2023-06-22T03:20:06;13.37;;;10.97;;
52590;SDS011;38483;42.620;25.394;2023-06-22T03:23:27;16.77;;;11.27;;
52590;SDS011;38483;42.620;25.394;2023-06-22T03:26:47;14.33;;;12.73;;
52590;SDS011;38483;42.620;25.394;2023-06-22T03:30:09;16.27;;;13.57;;
52590;SDS011;38483;42.620;25.394;2023-06-22T03:33:30;16.17;;;14.47;;
52590;SDS011;38483;42.620;25.394;2023-06-22T03:36:52;19.67;;;15.37;;
52590;SDS011;38483;42.620;25.394;2023-06-22T03:40:13;21.77;;;16.30;;
52590;SDS011;38483;42.620;25.394;2023-06-22T03:43:34;22.97;;;16.27;;
52590;SDS011;38483;42.620;25.394;2023-06-22T03:46:54;20.93;;;16.40;;
52590;SDS011;38483;42.620;25.394;2023-06-22T03:50:15;20.77;;;15.40;;
52590;SDS011;38483;42.620;25.394;2023-06-22T03:53:36;15.93;;;14.23;;
52590;SDS011;38483;42.620;25.394;2023-06-22T03:56:57;18.60;;;13.57;;
52590;SDS011;38483;42.620;25.394;2023-06-22T04:00:18;19.50;;;13.97;;
52590;SDS011;38483;42.620;25.394;2023-06-22T04:03:39;17.90;;;13.73;;
52590;SDS011;38483;42.620;25.394;2023-06-22T04:06:59;19.60;;;13.67;;
52590;SDS011;38483;42.620;25.394;2023-06-22T04:10:20;14.57;;;12.47;;
52590;SDS011;38483;42.620;25.394;2023-06-22T04:13:41;16.67;;;13.43;;
52590;SDS011;38483;42.620;25.394;2023-06-22T04:17:01;14.40;;;12.43;;
52590;SDS011;38483;42.620;25.394;2023-06-22T04:20:22;14.93;;;12.30;;
52590;SDS011;38483;42.620;25.394;2023-06-22T04:23:43;13.67;;;12.20;;
52590;SDS011;38483;42.620;25.394;2023-06-22T04:27:04;17.13;;;12.13;;
52590;SDS011;38483;42.620;25.394;2023-06-22T04:30:25;13.43;;;11.50;;
52590;SDS011;38483;42.620;25.394;2023-06-22T04:33:46;15.33;;;12.50;;
52590;SDS011;38483;42.620;25.394;2023-06-22T04:37:06;14.17;;;12.47;;
52590;SDS011;38483;42.620;25.394;2023-06-22T04:40:29;15.17;;;12.23;;
52590;SDS011;38483;42.620;25.394;2023-06-22T04:43:54;13.30;;;11.40;;
52590;SDS011;38483;42.620;25.394;2023-06-22T04:47:15;16.40;;;12.37;;
52590;SDS011;38483;42.620;25.394;2023-06-22T04:50:36;12.37;;;11.07;;
52590;SDS011;38483;42.620;25.394;2023-06-22T04:53:56;13.50;;;11.57;;
52590;SDS011;38483;42.620;25.394;2023-06-22T04:57:17;13.50;;;12.03;;
52590;SDS011;38483;42.620;25.394;2023-06-22T05:00:44;15.27;;;11.63;;
52590;SDS011;38483;42.620;25.394;2023-06-22T05:04:05;15.27;;;11.93;;
52590;SDS011;38483;42.620;25.394;2023-06-22T05:07:31;16.13;;;11.20;;
52590;SDS011;38483;42.620;25.394;2023-06-22T05:10:52;13.70;;;11.27;;
52590;SDS011;38483;42.620;25.394;2023-06-22T05:14:13;14.73;;;11.57;;
52590;SDS011;38483;42.620;25.394;2023-06-22T05:17:34;12.73;;;11.27;;
52590;SDS011;38483;42.620;25.394;2023-06-22T05:20:54;12.00;;;10.73;;
52590;SDS011;38483;42.620;25.394;2023-06-22T05:24:15;13.10;;;11.23;;
52590;SDS011;38483;42.620;25.394;2023-06-22T05:27:36;24.73;;;12.23;;
52590;SDS011;38483;42.620;25.394;2023-06-22T05:30:57;12.20;;;10.07;;
52590;SDS011;38483;42.620;25.394;2023-06-22T05:34:17;11.33;;;9.97;;
52590;SDS011;38483;42.620;25.394;2023-06-22T05:37:38;14.87;;;11.17;;
52590;SDS011;38483;42.620;25.394;2023-06-22T05:40:59;201.70;;;24.37;;
52590;SDS011;38483;42.620;25.394;2023-06-22T05:44:20;11.87;;;10.43;;
52590;SDS011;38483;42.620;25.394;2023-06-22T05:47:40;17.10;;;13.73;;
52590;SDS011;38483;42.620;25.394;2023-06-22T05:51:01;16.30;;;12.10;;
52590;SDS011;38483;42.620;25.394;2023-06-22T05:54:22;10.87;;;9.73;;
52590;SDS011;38483;42.620;25.394;2023-06-22T05:57:43;11.27;;;9.77;;
52590;SDS011;38483;42.620;25.394;2023-06-22T06:01:03;13.43;;;10.33;;
52590;SDS011;38483;42.620;25.394;2023-06-22T06:04:24;14.87;;;12.10;;
52590;SDS011;38483;42.620;25.394;2023-06-22T06:07:45;12.00;;;10.80;;
52590;SDS011;38483;42.620;25.394;2023-06-22T06:11:06;12.10;;;9.57;;
52590;SDS011;38483;42.620;25.394;2023-06-22T06:14:26;13.07;;;11.17;;
52590;SDS011;38483;42.620;25.394;2023-06-22T06:20:48;11.40;;;10.00;;
52590;SDS011;38483;42.620;25.394;2023-06-22T06:24:08;11.87;;;10.67;;
52590;SDS011;38483;42.620;25.394;2023-06-22T06:27:29;14.53;;;11.37;;
52590;SDS011;38483;42.620;25.394;2023-06-22T06:30:50;14.43;;;11.07;;
52590;SDS011;38483;42.620;25.394;2023-06-22T06:34:11;16.63;;;11.53;;
52590;SDS011;38483;42.620;25.394;2023-06-22T06:37:33;16.47;;;10.70;;
52590;SDS011;38483;42.620;25.394;2023-06-22T06:40:52;14.63;;;10.63;;
52590;SDS011;38483;42.620;25.394;2023-06-22T06:44:14;14.57;;;10.37;;
52590;SDS011;38483;42.620;25.394;2023-06-22T06:47:35;12.40;;;10.70;;
52590;SDS011;38483;42.620;25.394;2023-06-22T06:50:56;10.70;;;9.67;;
52590;SDS011;38483;42.620;25.394;2023-06-22T06:54:17;13.90;;;10.87;;
52590;SDS011;38483;42.620;25.394;2023-06-22T06:57:38;12.10;;;10.90;;
52590;SDS011;38483;42.620;25.394;2023-06-22T07:00:21;13.73;;;10.37;;
52590;SDS011;38483;42.620;25.394;2023-06-22T07:02:48;12.10;;;10.10;;
52590;SDS011;38483;42.620;25.394;2023-06-22T07:05:16;10.67;;;9.57;;
52590;SDS011;38483;42.620;25.394;2023-06-22T07:07:43;11.00;;;9.50;;
52590;SDS011;38483;42.620;25.394;2023-06-22T07:10:10;11.20;;;9.47;;
52590;SDS011;38483;42.620;25.394;2023-06-22T07:12:37;10.50;;;9.40;;
52590;SDS011;38483;42.620;25.394;2023-06-22T07:15:58;13.03;;;9.47;;
52590;SDS011;38483;42.620;25.394;2023-06-22T07:19:24;20.00;;;12.23;;
52590;SDS011;38483;42.620;25.394;2023-06-22T07:22:40;14.03;;;10.33;;
52590;SDS011;38483;42.620;25.394;2023-06-22T07:26:00;11.73;;;10.47;;
52590;SDS011;38483;42.620;25.394;2023-06-22T07:29:26;10.67;;;9.57;;
52590;SDS011;38483;42.620;25.394;2023-06-22T07:32:47;10.60;;;9.50;;
52590;SDS011;38483;42.620;25.394;2023-06-22T07:36:08;10.07;;;9.00;;
52590;SDS011;38483;42.620;25.394;2023-06-22T07:39:28;10.40;;;9.37;;
52590;SDS011;38483;42.620;25.394;2023-06-22T07:42:49;11.07;;;9.53;;
52590;SDS011;38483;42.620;25.394;2023-06-22T07:46:10;10.50;;;9.40;;
52590;SDS011;38483;42.620;25.394;2023-06-22T07:49:13;12.23;;;9.17;;
52590;SDS011;38483;42.620;25.394;2023-06-22T07:51:40;12.77;;;9.23;;
52590;SDS011;38483;42.620;25.394;2023-06-22T07:54:08;9.97;;;8.97;;
52590;SDS011;38483;42.620;25.394;2023-06-22T07:56:36;10.23;;;9.20;;
52590;SDS011;38483;42.620;25.394;2023-06-22T07:59:03;9.57;;;8.67;;
52590;SDS011;38483;42.620;25.394;2023-06-22T08:01:30;11.47;;;10.37;;
52590;SDS011;38483;42.620;25.394;2023-06-22T08:03:58;12.33;;;10.23;;
52590;SDS011;38483;42.620;25.394;2023-06-22T08:06:25;12.97;;;11.00;;
52590;SDS011;38483;42.620;25.394;2023-06-22T08:08:52;11.03;;;9.93;;
52590;SDS011;38483;42.620;25.394;2023-06-22T08:11:21;11.77;;;10.57;;
52590;SDS011;38483;42.620;25.394;2023-06-22T08:13:50;15.43;;;10.80;;
52590;SDS011;38483;42.620;25.394;2023-06-22T08:16:17;12.37;;;10.47;;
52590;SDS011;38483;42.620;25.394;2023-06-22T08:18:45;10.37;;;9.30;;
52590;SDS011;38483;42.620;25.394;2023-06-22T08:21:12;10.77;;;8.70;;
52590;SDS011;38483;42.620;25.394;2023-06-22T08:23:39;12.00;;;8.23;;
52590;SDS011;38483;42.620;25.394;2023-06-22T08:26:06;9.70;;;8.70;;
52590;SDS011;38483;42.620;25.394;2023-06-22T08:28:33;11.20;;;9.23;;
52590;SDS011;38483;42.620;25.394;2023-06-22T08:31:01;8.40;;;7.60;;
52590;SDS011;38483;42.620;25.394;2023-06-22T08:33:29;10.10;;;8.90;;
52590;SDS011;38483;42.620;25.394;2023-06-22T08:35:58;11.13;;;9.07;;
52590;SDS011;38483;42.620;25.394;2023-06-22T08:38:26;12.87;;;10.97;;
52590;SDS011;38483;42.620;25.394;2023-06-22T08:40:53;13.70;;;11.70;;
52590;SDS011;38483;42.620;25.394;2023-06-22T08:43:20;15.60;;;11.70;;
52590;SDS011;38483;42.620;25.394;2023-06-22T08:45:47;12.67;;;10.77;;
52590;SDS011;38483;42.620;25.394;2023-06-22T08:48:15;12.83;;;10.50;;
52590;SDS011;38483;42.620;25.394;2023-06-22T08:50:42;14.83;;;13.07;;
52590;SDS011;38483;42.620;25.394;2023-06-22T08:53:09;17.23;;;11.47;;
52590;SDS011;38483;42.620;25.394;2023-06-22T08:55:36;12.07;;;10.57;;
52590;SDS011;38483;42.620;25.394;2023-06-22T08:58:03;12.00;;;10.80;;
52590;SDS011;38483;42.620;25.394;2023-06-22T09:00:30;10.40;;;9.30;;
52590;SDS011;38483;42.620;25.394;2023-06-22T09:03:01;13.47;;;8.87;;
52590;SDS011;38483;42.620;25.394;2023-06-22T09:05:29;11.13;;;9.73;;
52590;SDS011;38483;42.620;25.394;2023-06-22T09:07:56;11.20;;;9.40;;
52590;SDS011;38483;42.620;25.394;2023-06-22T09:10:25;13.00;;;10.67;;
52590;SDS011;38483;42.620;25.394;2023-06-22T09:12:53;10.10;;;9.10;;
52590;SDS011;38483;42.620;25.394;2023-06-22T09:15:20;10.90;;;9.67;;
52590;SDS011;38483;42.620;25.394;2023-06-22T09:17:47;11.27;;;9.93;;
52590;SDS011;38483;42.620;25.394;2023-06-22T09:20:15;11.23;;;9.47;;
52590;SDS011;38483;42.620;25.394;2023-06-22T09:22:42;10.87;;;9.17;;
52590;SDS011;38483;42.620;25.394;2023-06-22T09:25:09;11.43;;;9.47;;
52590;SDS011;38483;42.620;25.394;2023-06-22T09:31:00;8.70;;;7.80;;
52590;SDS011;38483;42.620;25.394;2023-06-22T09:33:27;8.73;;;7.93;;
52590;SDS011;38483;42.620;25.394;2023-06-22T09:35:54;10.87;;;8.60;;
52590;SDS011;38483;42.620;25.394;2023-06-22T09:38:22;9.13;;;8.23;;
52590;SDS011;38483;42.620;25.394;2023-06-22T09:40:50;10.10;;;8.73;;
52590;SDS011;38483;42.620;25.394;2023-06-22T09:43:17;11.30;;;8.07;;
52590;SDS011;38483;42.620;25.394;2023-06-22T09:45:44;8.77;;;7.50;;
52590;SDS011;38483;42.620;25.394;2023-06-22T09:48:11;9.10;;;7.70;;
52590;SDS011;38483;42.620;25.394;2023-06-22T09:50:38;8.50;;;7.70;;
52590;SDS011;38483;42.620;25.394;2023-06-22T09:53:05;9.47;;;7.50;;
52590;SDS011;38483;42.620;25.394;2023-06-22T09:55:32;8.73;;;8.00;;
52590;SDS011;38483;42.620;25.394;2023-06-22T09:57:59;12.00;;;7.27;;
52590;SDS011;38483;42.620;25.394;2023-06-22T10:00:27;9.50;;;8.20;;
52590;SDS011;38483;42.620;25.394;2023-06-22T10:02:55;12.23;;;8.77;;
52590;SDS011;38483;42.620;25.394;2023-06-22T10:05:26;9.97;;;8.70;;
52590;SDS011;38483;42.620;25.394;2023-06-22T10:07:54;17.20;;;12.93;;
52590;SDS011;38483;42.620;25.394;2023-06-22T10:10:21;8.83;;;8.03;;
52590;SDS011;38483;42.620;25.394;2023-06-22T10:12:54;9.60;;;8.37;;
52590;SDS011;38483;42.620;25.394;2023-06-22T10:15:23;10.50;;;7.67;;
52590;SDS011;38483;42.620;25.394;2023-06-22T10:17:51;9.13;;;7.73;;
52590;SDS011;38483;42.620;25.394;2023-06-22T10:20:18;8.97;;;7.03;;
52590;SDS011;38483;42.620;25.394;2023-06-22T10:22:47;9.23;;;7.57;;
52590;SDS011;38483;42.620;25.394;2023-06-22T10:25:14;7.97;;;6.80;;
52590;SDS011;38483;42.620;25.394;2023-06-22T10:27:41;10.70;;;6.97;;
52590;SDS011;38483;42.620;25.394;2023-06-22T10:30:09;7.87;;;7.07;;
52590;SDS011;38483;42.620;25.394;2023-06-22T10:32:40;9.53;;;6.90;;
52590;SDS011;38483;42.620;25.394;2023-06-22T10:35:10;7.63;;;6.57;;
52590;SDS011;38483;42.620;25.394;2023-06-22T10:37:37;7.47;;;6.77;;
52590;SDS011;38483;42.620;25.394;2023-06-22T10:40:05;7.73;;;6.60;;
52590;SDS011;38483;42.620;25.394;2023-06-22T10:42:35;7.13;;;6.30;;
52590;SDS011;38483;42.620;25.394;2023-06-22T10:45:05;7.17;;;6.47;;
52590;SDS011;38483;42.620;25.394;2023-06-22T10:47:33;7.20;;;6.40;;
52590;SDS011;38483;42.620;25.394;2023-06-22T10:50:01;7.77;;;6.97;;
52590;SDS011;38483;42.620;25.394;2023-06-22T10:52:30;7.43;;;6.73;;
52590;SDS011;38483;42.620;25.394;2023-06-22T10:54:57;6.80;;;6.17;;
52590;SDS011;38483;42.620;25.394;2023-06-22T10:57:25;8.37;;;7.00;;
52590;SDS011;38483;42.620;25.394;2023-06-22T10:59:52;10.63;;;6.57;;
52590;SDS011;38483;42.620;25.394;2023-06-22T11:02:19;7.70;;;6.77;;
52590;SDS011;38483;42.620;25.394;2023-06-22T11:04:47;8.83;;;7.60;;
52590;SDS011;38483;42.620;25.394;2023-06-22T11:07:15;7.77;;;6.83;;
52590;SDS011;38483;42.620;25.394;2023-06-22T11:09:45;7.27;;;6.57;;
52590;SDS011;38483;42.620;25.394;2023-06-22T11:12:12;8.73;;;7.80;;
52590;SDS011;38483;42.620;25.394;2023-06-22T11:14:39;15.30;;;7.73;;
52590;SDS011;38483;42.620;25.394;2023-06-22T11:17:06;10.03;;;7.33;;
52590;SDS011;38483;42.620;25.394;2023-06-22T11:19:33;8.20;;;7.40;;
52590;SDS011;38483;42.620;25.394;2023-06-22T11:22:01;8.43;;;7.07;;
52590;SDS011;38483;42.620;25.394;2023-06-22T11:24:28;8.07;;;7.10;;
52590;SDS011;38483;42.620;25.394;2023-06-22T11:26:55;9.03;;;7.73;;
52590;SDS011;38483;42.620;25.394;2023-06-22T11:29:25;8.53;;;7.70;;
52590;SDS011;38483;42.620;25.394;2023-06-22T11:32:05;8.10;;;7.30;;
52590;SDS011;38483;42.620;25.394;2023-06-22T11:34:33;8.80;;;7.47;;
52590;SDS011;38483;42.620;25.394;2023-06-22T11:37:01;8.40;;;7.37;;
52590;SDS011;38483;42.620;25.394;2023-06-22T11:39:28;7.80;;;7.10;;
52590;SDS011;38483;42.620;25.394;2023-06-22T11:42:11;7.97;;;7.23;;
52590;SDS011;38483;42.620;25.394;2023-06-22T11:44:38;7.97;;;7.20;;
52590;SDS011;38483;42.620;25.394;2023-06-22T11:47:05;10.93;;;8.00;;
52590;SDS011;38483;42.620;25.394;2023-06-22T11:49:32;8.97;;;8.07;;
52590;SDS011;38483;42.620;25.394;2023-06-22T11:51:59;7.73;;;7.00;;
52590;SDS011;38483;42.620;25.394;2023-06-22T11:54:27;8.53;;;7.60;;
52590;SDS011;38483;42.620;25.394;2023-06-22T11:56:54;7.67;;;6.73;;
52590;SDS011;38483;42.620;25.394;2023-06-22T11:59:21;7.83;;;7.13;;
52590;SDS011;38483;42.620;25.394;2023-06-22T12:01:49;7.30;;;6.60;;
52590;SDS011;38483;42.620;25.394;2023-06-22T12:04:18;8.03;;;7.23;;
52590;SDS011;38483;42.620;25.394;2023-06-22T12:06:45;7.87;;;6.73;;
52590;SDS011;38483;42.620;25.394;2023-06-22T12:09:13;7.50;;;6.70;;
52590;SDS011;38483;42.620;25.394;2023-06-22T12:11:40;7.30;;;6.60;;
52590;SDS011;38483;42.620;25.394;2023-06-22T12:14:07;6.87;;;6.17;;
52590;SDS011;38483;42.620;25.394;2023-06-22T12:16:35;7.23;;;6.53;;
52590;SDS011;38483;42.620;25.394;2023-06-22T12:19:02;7.27;;;6.57;;
52590;SDS011;38483;42.620;25.394;2023-06-22T12:21:29;7.87;;;7.07;;
52590;SDS011;38483;42.620;25.394;2023-06-22T12:23:56;9.73;;;6.30;;
52590;SDS011;38483;42.620;25.394;2023-06-22T12:26:23;7.13;;;6.43;;
52590;SDS011;38483;42.620;25.394;2023-06-22T12:28:50;8.77;;;7.27;;
52590;SDS011;38483;42.620;25.394;2023-06-22T12:31:17;8.07;;;7.00;;
52590;SDS011;38483;42.620;25.394;2023-06-22T12:33:44;8.10;;;7.30;;
52590;SDS011;38483;42.620;25.394;2023-06-22T12:36:11;8.40;;;7.60;;
52590;SDS011;38483;42.620;25.394;2023-06-22T12:38:38;7.50;;;6.77;;
52590;SDS011;38483;42.620;25.394;2023-06-22T12:41:06;7.70;;;6.80;;
52590;SDS011;38483;42.620;25.394;2023-06-22T12:43:33;7.57;;;6.87;;
52590;SDS011;38483;42.620;25.394;2023-06-22T12:46:00;8.30;;;7.40;;
52590;SDS011;38483;42.620;25.394;2023-06-22T12:48:42;14.30;;;8.13;;
52590;SDS011;38483;42.620;25.394;2023-06-22T12:51:09;8.47;;;7.47;;
52590;SDS011;38483;42.620;25.394;2023-06-22T12:53:36;8.93;;;7.13;;
52590;SDS011;38483;42.620;25.394;2023-06-22T12:56:04;8.37;;;7.57;;
52590;SDS011;38483;42.620;25.394;2023-06-22T12:58:31;9.73;;;7.03;;
52590;SDS011;38483;42.620;25.394;2023-06-22T13:00:58;8.63;;;7.83;;
52590;SDS011;38483;42.620;25.394;2023-06-22T13:03:25;10.17;;;7.63;;
52590;SDS011;38483;42.620;25.394;2023-06-22T13:05:54;9.77;;;7.10;;
52590;SDS011;38483;42.620;25.394;2023-06-22T13:08:21;8.47;;;6.93;;
52590;SDS011;38483;42.620;25.394;2023-06-22T13:11:01;8.17;;;7.43;;
52590;SDS011;38483;42.620;25.394;2023-06-22T13:13:28;8.43;;;7.37;;
52590;SDS011;38483;42.620;25.394;2023-06-22T13:15:55;8.50;;;7.07;;
52590;SDS011;38483;42.620;25.394;2023-06-22T13:18:22;7.87;;;7.07;;
52590;SDS011;38483;42.620;25.394;2023-06-22T13:20:49;8.17;;;7.37;;
52590;SDS011;38483;42.620;25.394;2023-06-22T13:23:16;7.93;;;7.13;;
52590;SDS011;38483;42.620;25.394;2023-06-22T13:25:43;6.83;;;6.13;;
52590;SDS011;38483;42.620;25.394;2023-06-22T13:28:10;7.10;;;6.40;;
52590;SDS011;38483;42.620;25.394;2023-06-22T13:30:54;8.17;;;6.90;;
52590;SDS011;38483;42.620;25.394;2023-06-22T13:33:21;7.23;;;6.60;;
52590;SDS011;38483;42.620;25.394;2023-06-22T13:35:48;7.93;;;6.80;;
52590;SDS011;38483;42.620;25.394;2023-06-22T13:38:16;7.83;;;6.80;;
52590;SDS011;38483;42.620;25.394;2023-06-22T13:40:44;7.73;;;6.50;;
52590;SDS011;38483;42.620;25.394;2023-06-22T13:43:11;9.23;;;6.63;;
52590;SDS011;38483;42.620;25.394;2023-06-22T13:45:38;9.00;;;7.20;;
52590;SDS011;38483;42.620;25.394;2023-06-22T13:48:05;7.83;;;6.33;;
52590;SDS011;38483;42.620;25.394;2023-06-22T13:50:32;7.00;;;6.40;;
52590;SDS011;38483;42.620;25.394;2023-06-22T13:52:59;7.83;;;6.60;;
52590;SDS011;38483;42.620;25.394;2023-06-22T13:55:27;7.83;;;6.67;;
52590;SDS011;38483;42.620;25.394;2023-06-22T13:57:54;7.20;;;6.60;;
52590;SDS011;38483;42.620;25.394;2023-06-22T14:00:21;12.37;;;6.70;;
52590;SDS011;38483;42.620;25.394;2023-06-22T14:02:48;7.87;;;7.07;;
52590;SDS011;38483;42.620;25.394;2023-06-22T14:05:15;8.47;;;7.23;;
52590;SDS011;38483;42.620;25.394;2023-06-22T14:07:43;8.37;;;6.90;;
52590;SDS011;38483;42.620;25.394;2023-06-22T14:10:10;8.17;;;7.37;;
52590;SDS011;38483;42.620;25.394;2023-06-22T14:12:37;8.00;;;7.30;;
52590;SDS011;38483;42.620;25.394;2023-06-22T14:15:04;7.90;;;7.10;;
52590;SDS011;38483;42.620;25.394;2023-06-22T14:17:32;8.00;;;7.00;;
52590;SDS011;38483;42.620;25.394;2023-06-22T14:19:59;7.53;;;6.83;;
52590;SDS011;38483;42.620;25.394;2023-06-22T14:22:26;7.70;;;6.80;;
52590;SDS011;38483;42.620;25.394;2023-06-22T14:24:55;8.10;;;7.17;;
52590;SDS011;38483;42.620;25.394;2023-06-22T14:27:24;7.73;;;6.53;;
52590;SDS011;38483;42.620;25.394;2023-06-22T14:29:51;7.67;;;6.93;;
52590;SDS011;38483;42.620;25.394;2023-06-22T14:32:18;8.33;;;7.17;;
52590;SDS011;38483;42.620;25.394;2023-06-22T14:34:45;7.90;;;7.20;;
52590;SDS011;38483;42.620;25.394;2023-06-22T14:37:12;9.53;;;7.90;;
52590;SDS011;38483;42.620;25.394;2023-06-22T14:39:39;8.80;;;7.03;;
52590;SDS011;38483;42.620;25.394;2023-06-22T14:42:06;7.50;;;6.63;;
52590;SDS011;38483;42.620;25.394;2023-06-22T14:44:34;7.80;;;7.10;;
52590;SDS011;38483;42.620;25.394;2023-06-22T14:47:01;7.30;;;6.70;;
52590;SDS011;38483;42.620;25.394;2023-06-22T14:49:28;8.30;;;6.87;;
52590;SDS011;38483;42.620;25.394;2023-06-22T14:51:58;7.43;;;6.73;;
52590;SDS011;38483;42.620;25.394;2023-06-22T14:54:25;7.63;;;6.93;;
52590;SDS011;38483;42.620;25.394;2023-06-22T14:56:52;7.27;;;6.67;;
52590;SDS011;38483;42.620;25.394;2023-06-22T14:59:19;7.87;;;7.17;;
52590;SDS011;38483;42.620;25.394;2023-06-22T15:01:46;8.20;;;7.40;;
52590;SDS011;38483;42.620;25.394;2023-06-22T15:04:14;9.67;;;7.40;;
52590;SDS011;38483;42.620;25.394;2023-06-22T15:06:42;9.00;;;7.00;;
52590;SDS011;38483;42.620;25.394;2023-06-22T15:09:11;7.90;;;7.10;;
52590;SDS011;38483;42.620;25.394;2023-06-22T15:11:38;7.83;;;7.03;;
52590;SDS011;38483;42.620;25.394;2023-06-22T15:14:05;8.97;;;7.33;;
52590;SDS011;38483;42.620;25.394;2023-06-22T15:16:32;9.83;;;7.23;;
52590;SDS011;38483;42.620;25.394;2023-06-22T15:18:59;8.87;;;7.97;;
52590;SDS011;38483;42.620;25.394;2023-06-22T15:21:29;8.37;;;7.00;;
52590;SDS011;38483;42.620;25.394;2023-06-22T15:23:56;8.77;;;7.30;;
52590;SDS011;38483;42.620;25.394;2023-06-22T15:26:23;8.30;;;7.07;;
52590;SDS011;38483;42.620;25.394;2023-06-22T15:28:51;8.03;;;7.30;;
52590;SDS011;38483;42.620;25.394;2023-06-22T15:31:18;11.83;;;7.80;;
52590;SDS011;38483;42.620;25.394;2023-06-22T15:33:45;8.80;;;7.90;;
52590;SDS011;38483;42.620;25.394;2023-06-22T15:36:12;8.20;;;7.23;;
52590;SDS011;38483;42.620;25.394;2023-06-22T15:38:39;8.63;;;7.73;;
52590;SDS011;38483;42.620;25.394;2023-06-22T15:41:06;8.87;;;8.07;;
52590;SDS011;38483;42.620;25.394;2023-06-22T15:43:33;8.13;;;7.33;;
52590;SDS011;38483;42.620;25.394;2023-06-22T15:46:01;8.20;;;7.27;;
52590;SDS011;38483;42.620;25.394;2023-06-22T15:48:34;7.70;;;6.93;;
52590;SDS011;38483;42.620;25.394;2023-06-22T15:51:01;9.80;;;7.83;;
52590;SDS011;38483;42.620;25.394;2023-06-22T15:53:28;9.30;;;8.23;;
52590;SDS011;38483;42.620;25.394;2023-06-22T15:55:55;8.83;;;7.93;;
52590;SDS011;38483;42.620;25.394;2023-06-22T15:58:23;8.70;;;7.90;;
52590;SDS011;38483;42.620;25.394;2023-06-22T16:00:50;8.90;;;8.00;;
52590;SDS011;38483;42.620;25.394;2023-06-22T16:03:19;9.67;;;7.50;;
52590;SDS011;38483;42.620;25.394;2023-06-22T16:05:46;9.03;;;8.00;;
52590;SDS011;38483;42.620;25.394;2023-06-22T16:08:13;12.97;;;8.67;;
52590;SDS011;38483;42.620;25.394;2023-06-22T16:10:40;9.00;;;8.10;;
52590;SDS011;38483;42.620;25.394;2023-06-22T16:13:07;9.33;;;8.03;;
52590;SDS011;38483;42.620;25.394;2023-06-22T16:15:34;9.00;;;8.10;;
52590;SDS011;38483;42.620;25.394;2023-06-22T16:18:01;11.17;;;8.60;;
52590;SDS011;38483;42.620;25.394;2023-06-22T16:20:29;9.63;;;8.77;;